createdAt,value
2018-12-14T11:15:19.045Z,20.696716
2018-12-14T11:15:30.344Z,20.696716
2018-12-14T11:15:42.020Z,20.686646
2018-12-14T11:15:52.591Z,20.696716
2018-12-14T11:16:02.160Z,20.716858
2018-12-14T11:16:13.066Z,20.726929
2018-12-14T11:16:24.487Z,20.757141
2018-12-14T11:16:37.005Z,20.767212
2018-12-14T11:16:47.930Z,20.807495
2018-12-14T11:16:58.264Z,20.817566
2018-12-14T11:17:11.719Z,20.847778
2018-12-14T11:17:20.840Z,20.877991
2018-12-14T11:17:30.042Z,20.908203
2018-12-14T11:17:39.141Z,20.918274
2018-12-14T11:17:47.960Z,20.948486
2018-12-14T11:17:57.022Z,20.968628
2018-12-14T11:18:05.975Z,20.99884
2018-12-14T11:18:15.241Z,21.018982
2018-12-14T11:18:25.384Z,21.039124
2018-12-14T11:18:34.161Z,21.089478
2018-12-14T11:18:44.061Z,21.069336
2018-12-14T11:19:13.522Z,21.159973
2018-12-14T11:19:22.625Z,21.190186
2018-12-14T11:19:31.844Z,21.24054
2018-12-14T11:19:40.746Z,21.24054
2018-12-14T11:19:50.244Z,21.280823
2018-12-14T11:19:59.945Z,21.290894
2018-12-14T11:20:11.643Z,21.321106
2018-12-14T11:20:22.040Z,21.341248
2018-12-14T11:20:32.642Z,21.351318
2018-12-14T11:20:42.666Z,21.37146
2018-12-14T11:20:52.786Z,21.401672
2018-12-14T11:21:04.687Z,21.401672
2018-12-14T11:21:34.698Z,21.421814
2018-12-14T11:21:45.179Z,21.421814
2018-12-14T11:21:55.785Z,21.421814
2018-12-14T11:22:08.417Z,21.431885
2018-12-14T11:22:19.721Z,21.431885
2018-12-14T11:22:32.028Z,21.431885
2018-12-14T11:22:45.201Z,21.441956
2018-12-14T11:22:56.465Z,21.441956
2018-12-14T11:23:07.925Z,21.441956
2018-12-14T11:23:19.821Z,21.431885
2018-12-14T11:23:34.605Z,21.431885
2018-12-14T11:23:50.443Z,21.441956
2018-12-14T11:24:03.905Z,21.431885
2018-12-14T11:24:16.101Z,21.441956
2018-12-14T11:24:30.379Z,21.431885
2018-12-14T11:24:43.462Z,21.431885
2018-12-14T11:25:00.064Z,21.421814
2018-12-14T11:25:14.902Z,21.431885
2018-12-14T11:25:27.183Z,21.421814
2018-12-14T11:25:40.884Z,21.421814
2018-12-14T11:31:11.606Z,21.875
2018-12-14T11:31:25.922Z,21.864929
2018-12-14T11:31:38.060Z,21.834717
2018-12-14T11:31:49.675Z,21.804504
2018-12-14T11:32:00.461Z,21.774292
2018-12-14T11:32:11.658Z,21.764221
2018-12-14T11:32:23.021Z,21.764221
2018-12-14T11:32:34.487Z,21.74408
2018-12-14T11:32:45.864Z,21.734009
2018-12-14T11:32:56.641Z,21.734009
2018-12-14T11:33:09.411Z,21.74408
2018-12-14T11:33:21.429Z,21.764221
2018-12-14T11:33:32.720Z,21.794434
2018-12-14T11:33:44.206Z,21.814575
2018-12-14T11:33:55.699Z,21.814575
2018-12-14T11:34:09.120Z,21.804504
2018-12-14T11:34:22.400Z,21.794434
2018-12-14T11:34:36.104Z,21.764221
2018-12-14T11:34:47.443Z,21.74408
2018-12-14T11:35:00.323Z,21.74408
2018-12-14T11:35:11.943Z,21.734009
2018-12-14T11:35:23.898Z,21.74408
2018-12-14T11:35:36.266Z,21.734009
2018-12-14T11:35:47.088Z,21.734009
2018-12-14T11:35:59.240Z,21.713867
2018-12-14T11:36:10.247Z,21.693726
2018-12-14T11:36:22.846Z,21.683655
2018-12-14T11:36:34.301Z,21.683655
2018-12-14T11:36:47.521Z,21.693726
2018-12-14T11:37:00.742Z,21.683655
2018-12-14T11:37:13.502Z,21.683655
2018-12-14T11:37:24.926Z,21.663513
2018-12-14T11:37:36.471Z,21.663513
2018-12-14T11:37:48.064Z,21.663513
2018-12-14T11:37:58.990Z,21.663513
2018-12-14T11:38:11.265Z,21.663513
2018-12-14T11:38:22.443Z,21.683655
2018-12-14T11:38:36.126Z,21.663513
2018-12-14T11:38:48.462Z,21.713867
2018-12-14T11:39:00.573Z,21.794434
2018-12-14T11:39:12.626Z,21.804504
2018-12-14T11:39:24.828Z,21.794434
2018-12-14T11:39:36.744Z,21.804504
2018-12-14T11:39:47.600Z,21.814575
2018-12-14T11:39:58.166Z,21.804504
2018-12-14T11:40:09.521Z,21.804504
2018-12-14T11:40:22.606Z,21.794434
2018-12-14T11:40:33.925Z,21.774292
2018-12-14T11:40:45.843Z,21.834717
2018-12-14T11:40:57.186Z,21.905212
2018-12-14T11:41:08.223Z,21.985779
2018-12-14T11:41:22.990Z,22.026062
2018-12-14T11:41:36.320Z,22.046204
2018-12-14T11:41:49.643Z,22.056274
2018-12-14T11:42:03.462Z,22.066345
2018-12-14T11:42:19.253Z,22.056274
2018-12-14T11:42:32.702Z,22.046204
2018-12-14T11:42:45.294Z,22.056274
2018-12-14T11:42:56.825Z,22.086487
2018-12-14T11:43:08.521Z,22.106628
2018-12-14T11:43:19.258Z,22.106628
2018-12-14T11:43:30.487Z,22.086487
2018-12-14T11:43:41.478Z,22.066345
2018-12-14T11:43:51.706Z,22.056274
2018-12-14T11:44:03.051Z,22.056274
2018-12-14T11:44:13.576Z,22.046204
2018-12-14T11:44:27.960Z,22.056274
2018-12-14T11:44:39.290Z,22.066345
2018-12-14T11:44:51.549Z,22.066345
2018-12-14T11:45:02.763Z,22.066345
2018-12-14T11:45:13.448Z,22.056274
2018-12-14T11:45:23.905Z,22.026062
2018-12-14T11:45:34.666Z,22.015991
2018-12-14T11:45:45.547Z,22.015991
2018-12-14T11:45:56.665Z,21.99585
2018-12-14T11:46:08.327Z,21.99585
2018-12-14T11:48:04.055Z,22.015991
2018-12-14T11:48:12.193Z,22.056274
2018-12-14T11:48:22.656Z,22.056274
2018-12-14T11:48:30.443Z,22.066345
2018-12-14T11:48:38.214Z,22.066345
2018-12-14T11:48:46.035Z,22.086487
2018-12-14T11:48:54.799Z,22.086487
2018-12-14T11:49:02.578Z,22.086487
2018-12-14T11:49:11.952Z,22.066345
2018-12-14T11:49:19.955Z,22.056274
2018-12-14T11:49:30.002Z,22.056274
2018-12-14T11:49:37.785Z,22.046204
2018-12-14T11:49:46.859Z,22.026062
2018-12-14T11:49:56.419Z,22.015991
2018-12-14T11:50:04.608Z,21.99585
2018-12-14T11:50:13.043Z,22.015991
2018-12-14T11:50:21.375Z,21.99585
2018-12-14T11:50:29.325Z,21.985779
2018-12-14T11:50:37.091Z,21.985779
2018-12-14T11:50:44.930Z,21.965637
2018-12-14T11:50:54.342Z,21.955566
2018-12-14T11:51:03.593Z,21.945496
2018-12-14T11:51:11.931Z,21.905212
2018-12-14T11:51:19.906Z,21.925354
2018-12-14T11:51:27.835Z,21.945496
2018-12-14T11:51:36.424Z,21.925354
2018-12-14T11:51:45.465Z,21.945496
2018-12-14T11:51:53.511Z,21.925354
2018-12-14T11:52:01.474Z,21.905212
2018-12-14T11:52:09.455Z,21.895142
2018-12-14T11:52:17.246Z,21.895142
2018-12-14T11:52:25.193Z,21.895142
2018-12-14T11:52:33.085Z,21.875
2018-12-14T11:52:40.900Z,21.875
2018-12-14T11:52:48.728Z,21.895142
2018-12-14T11:52:56.649Z,21.895142
2018-12-14T11:53:04.721Z,21.905212
2018-12-14T11:53:12.543Z,21.905212
2018-12-14T11:53:20.424Z,21.895142
2018-12-14T11:53:28.339Z,21.895142
2018-12-14T11:53:37.156Z,21.875
2018-12-14T11:53:45.041Z,21.905212
2018-12-14T11:53:52.993Z,21.925354
2018-12-14T11:54:00.874Z,21.945496
2018-12-14T11:54:08.721Z,21.955566
2018-12-14T11:54:17.474Z,21.955566
2018-12-14T11:54:25.473Z,21.955566
2018-12-14T11:54:33.514Z,21.955566
2018-12-14T11:54:41.449Z,21.955566
2018-12-14T11:54:49.395Z,21.955566
2018-12-14T11:54:57.241Z,21.965637
2018-12-14T11:55:05.100Z,21.965637
2018-12-14T11:55:13.005Z,21.985779
2018-12-14T11:55:20.916Z,21.985779
2018-12-14T11:55:28.735Z,21.965637
2018-12-14T11:55:36.603Z,21.985779
2018-12-14T11:55:45.413Z,21.965637
2018-12-14T11:55:53.308Z,21.965637
2018-12-14T11:56:02.205Z,21.965637
2018-12-14T11:56:22.277Z,21.945496
2018-12-14T11:56:30.152Z,21.955566
2018-12-14T11:56:38.058Z,21.965637
2018-12-14T11:56:45.970Z,21.955566
2018-12-14T11:56:53.879Z,21.965637
2018-12-14T11:57:01.955Z,21.965637
2018-12-14T11:57:09.903Z,21.965637
2018-12-14T11:57:17.743Z,21.985779
2018-12-14T11:57:25.745Z,21.965637
2018-12-14T11:57:33.765Z,21.985779
2018-12-14T11:57:41.685Z,21.985779
2018-12-14T11:57:50.656Z,21.99585
2018-12-14T11:57:58.488Z,21.99585
2018-12-14T11:58:06.441Z,21.985779
2018-12-14T11:58:14.408Z,21.99585
2018-12-14T11:58:22.221Z,21.985779
2018-12-14T11:58:30.050Z,21.985779
2018-12-14T11:58:37.905Z,21.965637
2018-12-14T11:58:45.786Z,21.955566
2018-12-14T11:58:53.649Z,21.945496
2018-12-14T11:59:01.653Z,21.955566
2018-12-14T11:59:09.534Z,21.945496
2018-12-14T11:59:17.391Z,21.945496
2018-12-14T11:59:25.287Z,21.925354
2018-12-14T11:59:34.228Z,21.925354
2018-12-14T11:59:42.179Z,21.905212
2018-12-14T11:59:50.105Z,21.895142
2018-12-14T11:59:57.993Z,21.875
2018-12-14T12:00:05.962Z,21.895142
2018-12-14T12:00:13.903Z,21.895142
2018-12-14T12:00:21.693Z,21.895142
2018-12-14T12:00:29.553Z,21.895142
2018-12-14T12:00:37.372Z,21.895142
2018-12-14T12:00:45.353Z,21.875
2018-12-14T12:00:53.184Z,21.875
2018-12-14T12:01:01.124Z,21.895142
2018-12-14T12:01:08.979Z,21.955566
2018-12-14T12:01:16.900Z,22.015991
2018-12-14T12:01:25.879Z,22.066345
2018-12-14T12:01:33.789Z,22.146912
2018-12-14T12:01:41.650Z,22.197266
2018-12-14T12:01:50.640Z,22.217407
2018-12-14T12:01:58.500Z,22.237549
2018-12-14T12:02:06.462Z,22.24762
2018-12-14T12:02:14.311Z,22.267761
2018-12-14T12:02:22.271Z,22.267761
2018-12-14T12:02:30.098Z,22.318115
2018-12-14T12:02:42.997Z,22.318115
2018-12-14T12:02:48.767Z,22.318115
2018-12-14T12:02:56.635Z,22.318115
2018-12-14T12:03:04.422Z,22.358398
2018-12-14T12:03:12.347Z,22.388611
2018-12-14T12:03:20.205Z,22.398682
2018-12-14T12:03:28.076Z,22.428894
2018-12-14T12:03:42.633Z,22.459106
2018-12-14T12:06:48.034Z,22.952576
2018-12-14T12:06:55.957Z,22.972717
2018-12-14T12:07:03.892Z,22.992859
2018-12-14T12:07:11.730Z,23.073425
2018-12-14T12:07:19.762Z,23.123779
2018-12-14T12:07:27.584Z,23.13385
2018-12-14T12:07:36.540Z,23.143921
2018-12-14T12:07:45.467Z,23.143921
2018-12-14T12:07:54.228Z,23.143921
2018-12-14T12:08:03.086Z,23.164062
2018-12-14T12:08:11.003Z,23.13385
2018-12-14T12:08:18.911Z,23.13385
2018-12-14T12:08:27.843Z,23.164062
2018-12-14T12:08:35.690Z,23.174133
2018-12-14T12:08:43.601Z,23.194275
2018-12-14T12:08:51.471Z,23.204346
2018-12-14T12:08:59.377Z,23.224487
2018-12-14T12:09:07.287Z,23.244629
2018-12-14T12:09:15.125Z,23.2547
2018-12-14T12:09:23.022Z,23.274841
2018-12-14T12:09:31.339Z,23.274841
2018-12-14T12:09:40.166Z,23.284912
2018-12-14T12:09:49.931Z,23.294983
2018-12-14T12:09:57.804Z,23.294983
2018-12-14T12:10:05.707Z,23.315125
2018-12-14T12:10:14.744Z,23.315125
2018-12-14T12:10:22.650Z,23.325195
2018-12-14T12:10:30.699Z,23.325195
2018-12-14T12:10:38.589Z,23.315125
2018-12-14T12:10:46.611Z,23.345337
2018-12-14T12:10:54.555Z,23.345337
2018-12-14T12:11:02.402Z,23.345337
2018-12-14T12:11:11.232Z,23.355408
2018-12-14T12:11:19.010Z,23.375549
2018-12-14T12:11:26.868Z,23.375549
2018-12-14T12:11:34.784Z,23.355408
2018-12-14T12:11:42.657Z,23.375549
2018-12-14T12:11:50.594Z,23.375549
2018-12-14T12:11:58.484Z,23.375549
2018-12-14T12:12:06.416Z,23.375549
2018-12-14T12:12:15.227Z,23.375549
2018-12-14T12:12:23.037Z,23.355408
2018-12-14T12:12:30.945Z,23.375549
2018-12-14T12:12:38.892Z,23.355408
2018-12-14T12:12:46.819Z,23.355408
2018-12-14T12:12:54.713Z,23.355408
2018-12-14T12:13:02.553Z,23.355408
2018-12-14T12:13:10.558Z,23.355408
2018-12-14T12:13:18.497Z,23.345337
2018-12-14T12:13:26.432Z,23.345337
2018-12-14T12:13:35.405Z,23.325195
2018-12-14T12:13:43.397Z,23.325195
2018-12-14T12:13:52.234Z,23.325195
2018-12-14T12:14:00.239Z,23.315125
2018-12-14T12:14:08.550Z,23.315125
2018-12-14T12:14:16.454Z,23.294983
2018-12-14T12:14:27.523Z,23.284912
2018-12-14T12:14:35.522Z,23.284912
2018-12-14T12:14:43.707Z,23.274841
2018-12-14T12:14:51.898Z,23.2547
2018-12-14T12:15:00.138Z,23.2547
2018-12-14T12:15:09.594Z,23.2547
2018-12-14T12:15:17.653Z,23.244629
2018-12-14T12:15:25.840Z,23.244629
2018-12-14T12:15:33.813Z,23.204346
2018-12-14T12:15:41.921Z,23.194275
2018-12-14T12:15:49.807Z,23.194275
2018-12-14T12:15:57.708Z,23.174133
2018-12-14T12:16:05.745Z,23.164062
2018-12-14T12:16:13.568Z,23.164062
2018-12-14T12:16:21.668Z,23.143921
2018-12-14T12:16:29.722Z,23.143921
2018-12-14T12:16:37.814Z,23.143921
2018-12-14T12:16:45.899Z,23.123779
2018-12-14T12:16:53.794Z,23.123779
2018-12-14T12:17:01.722Z,23.103638
2018-12-14T12:17:09.713Z,23.093567
2018-12-14T12:17:17.693Z,23.073425
2018-12-14T12:17:25.643Z,23.073425
2018-12-14T12:17:33.747Z,23.073425
2018-12-14T12:17:42.043Z,23.063354
2018-12-14T12:17:52.897Z,23.023071
2018-12-14T12:18:01.738Z,23.023071
2018-12-14T12:18:09.803Z,23.013
2018-12-14T12:18:18.732Z,22.992859
2018-12-14T12:18:31.135Z,22.972717
2018-12-14T12:18:41.950Z,22.982788
2018-12-14T12:18:51.529Z,22.952576
2018-12-14T12:18:59.393Z,22.942505
2018-12-14T12:19:07.263Z,22.942505
2018-12-14T12:19:17.158Z,22.922363
2018-12-14T12:19:25.166Z,22.902222
2018-12-14T12:19:32.977Z,22.902222
2018-12-14T12:19:40.863Z,22.88208
2018-12-14T12:19:48.926Z,22.88208
2018-12-14T12:19:56.807Z,22.872009
2018-12-14T12:20:04.820Z,22.851868
2018-12-14T12:20:12.713Z,22.831726
2018-12-14T12:20:20.868Z,22.831726
2018-12-14T12:20:28.785Z,22.831726
2018-12-14T12:20:36.979Z,22.821655
2018-12-14T12:20:44.861Z,22.821655
2018-12-14T12:20:53.765Z,22.791443
2018-12-14T12:21:02.709Z,22.791443
2018-12-14T12:21:11.537Z,22.791443
2018-12-14T12:21:19.409Z,22.791443
2018-12-14T12:21:27.423Z,22.771301
2018-12-14T12:21:35.342Z,22.771301
2018-12-14T12:21:43.676Z,22.771301
2018-12-14T12:21:51.379Z,22.771301
2018-12-14T12:21:59.475Z,22.75116
2018-12-14T12:22:08.173Z,22.75116
2018-12-14T12:22:18.058Z,22.731018
2018-12-14T12:22:26.932Z,22.731018
2018-12-14T12:22:34.845Z,22.731018
2018-12-14T12:22:42.827Z,22.720947
2018-12-14T12:22:50.711Z,22.700806
2018-12-14T12:22:58.684Z,22.700806
2018-12-14T12:23:06.733Z,22.700806
2018-12-14T12:23:14.819Z,22.700806
2018-12-14T12:23:23.774Z,22.690735
2018-12-14T12:23:31.663Z,22.690735
2018-12-14T12:23:39.529Z,22.690735
2018-12-14T12:23:47.495Z,22.670593
2018-12-14T12:23:58.336Z,22.670593
2018-12-14T12:24:06.358Z,22.650452
2018-12-14T12:24:14.373Z,22.650452
2018-12-14T12:24:22.257Z,22.650452
2018-12-14T12:24:30.133Z,22.650452
2018-12-14T12:24:38.026Z,22.640381
2018-12-14T12:24:46.931Z,22.640381
2018-12-14T12:24:54.966Z,22.620239
2018-12-14T12:25:02.957Z,22.620239
2018-12-14T12:25:10.764Z,22.610168
2018-12-14T12:25:18.723Z,22.610168
2018-12-14T12:25:26.614Z,22.610168
2018-12-14T12:25:34.526Z,22.610168
2018-12-14T12:25:42.396Z,22.610168
2018-12-14T12:25:50.590Z,22.600098
2018-12-14T12:25:58.489Z,22.579956
2018-12-14T12:26:06.569Z,22.600098
2018-12-14T12:26:14.478Z,22.579956
2018-12-14T12:26:22.313Z,22.600098
2018-12-14T12:26:30.237Z,22.579956
2018-12-14T12:26:38.182Z,22.600098
2018-12-14T12:26:45.980Z,22.579956
2018-12-14T12:26:53.862Z,22.579956
2018-12-14T12:27:01.826Z,22.569885
2018-12-14T12:27:09.688Z,22.569885
2018-12-14T12:27:18.447Z,22.569885
2018-12-14T12:27:25.608Z,22.549744
2018-12-14T12:27:33.479Z,22.539673
2018-12-14T12:27:42.276Z,22.549744
2018-12-14T12:27:50.174Z,22.539673
2018-12-14T12:27:58.126Z,22.549744
2018-12-14T12:28:06.098Z,22.539673
2018-12-14T12:28:14.030Z,22.519531
2018-12-14T12:28:21.935Z,22.519531
2018-12-14T12:28:29.752Z,22.539673
2018-12-14T12:28:37.570Z,22.519531
2018-12-14T12:28:46.587Z,22.539673
2018-12-14T12:28:54.521Z,22.519531
2018-12-14T12:29:03.458Z,22.50946
2018-12-14T12:29:11.611Z,22.519531
2018-12-14T12:29:19.491Z,22.519531
2018-12-14T12:29:27.346Z,22.50946
2018-12-14T12:29:35.823Z,22.519531
2018-12-14T12:29:43.123Z,22.50946
2018-12-14T12:29:52.999Z,22.398682
2018-12-14T12:30:00.905Z,22.197266
2018-12-14T12:30:08.770Z,21.965637
2018-12-14T12:30:16.804Z,21.683655
2018-12-14T12:30:24.830Z,21.351318
2018-12-14T12:30:32.780Z,21.039124
2018-12-14T12:30:40.608Z,20.686646
2018-12-14T12:30:48.470Z,20.334167
2018-12-14T12:30:57.356Z,19.931335
2018-12-14T12:31:05.371Z,19.558716
2018-12-14T12:31:14.295Z,19.176025
2018-12-14T12:31:22.615Z,18.773193
2018-12-14T12:31:30.642Z,18.400574
2018-12-14T12:31:38.594Z,18.138733
2018-12-14T12:31:46.479Z,17.886963
2018-12-14T12:31:55.311Z,17.615051
2018-12-14T12:32:03.209Z,17.403564
2018-12-14T12:32:11.143Z,17.182007
2018-12-14T12:32:19.077Z,17.000732
2018-12-14T12:32:26.912Z,16.829529
2018-12-14T12:32:34.939Z,16.658325
2018-12-14T12:32:42.929Z,16.527405
2018-12-14T12:32:51.807Z,16.386414
2018-12-14T12:32:59.753Z,16.255493
2018-12-14T12:33:07.611Z,16.164856
2018-12-14T12:33:15.621Z,16.054077
2018-12-14T12:33:24.469Z,15.983582
2018-12-14T12:33:32.347Z,15.903015
2018-12-14T12:33:40.277Z,15.84259
2018-12-14T12:33:48.112Z,15.792236
2018-12-14T12:33:55.939Z,15.751953
2018-12-14T12:34:03.953Z,15.71167
2018-12-14T12:34:12.743Z,15.691528
2018-12-14T12:34:20.565Z,15.671387
2018-12-14T12:34:28.526Z,15.651245
2018-12-14T12:34:36.351Z,15.651245
2018-12-14T12:34:44.182Z,15.651245
2018-12-14T12:34:53.077Z,15.651245
2018-12-14T12:35:00.925Z,15.681458
2018-12-14T12:35:08.762Z,15.681458
2018-12-14T12:35:16.592Z,15.691528
2018-12-14T12:35:24.584Z,15.721741
2018-12-14T12:35:32.398Z,15.772095
2018-12-14T12:35:41.255Z,15.792236
2018-12-14T12:35:49.120Z,15.822449
2018-12-14T12:35:57.931Z,15.872803
2018-12-14T12:36:05.832Z,15.923157
2018-12-14T12:36:13.816Z,15.973511
2018-12-14T12:36:21.724Z,16.003723
2018-12-14T12:36:29.575Z,16.054077
2018-12-14T12:36:37.633Z,16.114502
2018-12-14T12:36:45.540Z,16.164856
2018-12-14T12:36:53.351Z,16.225281
2018-12-14T12:37:02.204Z,16.265564
2018-12-14T12:37:10.004Z,16.34613
2018-12-14T12:37:17.838Z,16.386414
2018-12-14T12:37:25.760Z,16.446838
2018-12-14T12:37:33.737Z,16.527405
2018-12-14T12:37:41.598Z,16.5979
2018-12-14T12:37:49.402Z,16.638184
2018-12-14T12:37:57.472Z,16.708679
2018-12-14T12:38:05.410Z,16.759033
2018-12-14T12:38:14.209Z,16.829529
2018-12-14T12:38:22.138Z,16.910095
2018-12-14T12:38:48.906Z,17.121582
2018-12-14T12:38:56.799Z,17.182007
2018-12-14T12:39:04.622Z,17.252502
2018-12-14T12:39:13.497Z,17.312927
2018-12-14T12:39:21.394Z,17.383423
2018-12-14T12:39:29.201Z,17.433777
2018-12-14T12:39:37.078Z,17.514343
2018-12-14T12:39:44.997Z,17.564697
2018-12-14T12:39:52.845Z,17.645264
2018-12-14T12:40:00.679Z,17.715759
2018-12-14T12:40:08.539Z,17.766113
2018-12-14T12:40:18.326Z,17.85675
2018-12-14T12:40:27.173Z,17.917175
2018-12-14T12:40:35.845Z,17.967529
2018-12-14T12:40:43.620Z,18.038025
2018-12-14T12:40:51.491Z,18.09845
2018-12-14T12:40:59.297Z,18.168945
2018-12-14T12:41:09.494Z,18.249512
2018-12-14T12:41:17.287Z,18.289795
2018-12-14T12:41:26.292Z,18.35022
2018-12-14T12:41:35.833Z,18.410645
2018-12-14T12:41:43.776Z,18.471069
2018-12-14T12:41:51.897Z,18.511353
2018-12-14T12:41:59.843Z,18.581848
2018-12-14T12:42:07.817Z,18.622131
2018-12-14T12:42:15.711Z,18.672485
2018-12-14T12:42:23.642Z,18.722839
2018-12-14T12:42:31.498Z,18.783264
2018-12-14T12:42:39.364Z,18.843689
2018-12-14T12:42:47.250Z,18.883972
2018-12-14T12:42:55.265Z,18.924255
2018-12-14T12:43:03.118Z,18.98468
2018-12-14T12:43:11.570Z,19.055176
2018-12-14T12:43:20.304Z,19.095459
2018-12-14T12:43:29.195Z,19.155884
2018-12-14T12:43:37.299Z,19.186096
2018-12-14T12:43:45.198Z,19.226379
2018-12-14T12:43:53.091Z,19.286804
2018-12-14T12:44:00.986Z,19.327087
2018-12-14T12:44:08.916Z,19.367371
2018-12-14T12:44:16.755Z,19.407654
2018-12-14T12:44:24.604Z,19.458008
2018-12-14T12:44:35.423Z,19.508362
2018-12-14T12:44:43.259Z,19.548645
2018-12-14T12:44:51.089Z,19.578857
2018-12-14T12:44:58.873Z,19.619141
2018-12-14T12:45:07.659Z,19.649353
2018-12-14T12:45:16.315Z,19.709778
2018-12-14T12:45:24.173Z,19.760132
2018-12-14T12:45:32.059Z,19.780273
2018-12-14T12:45:39.846Z,19.830627
2018-12-14T12:45:47.724Z,19.880981
2018-12-14T12:45:55.519Z,19.921265
2018-12-14T12:46:03.354Z,19.951477
2018-12-14T12:46:11.203Z,19.99176
2018-12-14T12:46:19.088Z,20.021973
2018-12-14T12:46:26.912Z,20.062256
2018-12-14T12:46:35.694Z,20.092468
2018-12-14T12:46:43.538Z,20.132751
2018-12-14T12:46:51.362Z,20.162964
2018-12-14T12:46:59.160Z,20.183105
2018-12-14T12:47:06.957Z,20.253601
2018-12-14T12:47:14.915Z,20.263672
2018-12-14T12:47:22.722Z,20.293884
2018-12-14T12:47:30.850Z,20.354309
2018-12-14T12:47:38.643Z,20.36438
2018-12-14T12:47:46.473Z,20.394592
2018-12-14T12:47:54.322Z,20.434875
2018-12-14T12:48:02.251Z,20.475159
2018-12-14T12:48:10.030Z,20.505371
2018-12-14T12:48:17.913Z,20.535583
2018-12-14T12:48:25.744Z,20.565796
2018-12-14T12:48:33.531Z,20.575867
2018-12-14T12:48:41.361Z,20.626221
2018-12-14T12:48:49.206Z,20.656433
2018-12-14T12:48:57.094Z,20.686646
2018-12-14T12:49:04.969Z,20.696716
2018-12-14T12:49:12.866Z,20.737
2018-12-14T12:49:20.745Z,20.767212
2018-12-14T12:49:28.647Z,20.787354
2018-12-14T12:49:36.514Z,20.807495
2018-12-14T12:49:44.433Z,20.847778
2018-12-14T12:49:52.325Z,20.877991
2018-12-14T12:50:00.186Z,20.888062
2018-12-14T12:50:08.072Z,20.918274
2018-12-14T12:50:17.254Z,20.948486
2018-12-14T12:50:25.092Z,20.978699
2018-12-14T12:50:35.788Z,21.029053
2018-12-14T12:50:43.581Z,21.059265
2018-12-14T12:50:51.445Z,21.069336
2018-12-14T12:51:03.523Z,21.099548
2018-12-14T12:51:11.026Z,21.11969
2018-12-14T12:51:18.824Z,21.139832
2018-12-14T12:51:26.651Z,21.180115
2018-12-14T12:51:34.506Z,21.210327
2018-12-14T12:51:43.476Z,21.210327
2018-12-14T12:51:51.323Z,21.24054
2018-12-14T12:51:59.173Z,21.270752
2018-12-14T12:52:07.043Z,21.280823
2018-12-14T12:52:15.599Z,21.311035
2018-12-14T12:52:23.578Z,21.321106
2018-12-14T12:52:31.499Z,21.341248
2018-12-14T12:52:40.406Z,21.351318
2018-12-14T12:52:48.276Z,21.391602
2018-12-14T12:52:56.115Z,21.421814
2018-12-14T12:53:03.954Z,21.431885
2018-12-14T12:53:11.804Z,21.441956
2018-12-14T12:53:22.539Z,21.49231
2018-12-14T12:53:30.429Z,21.50238
2018-12-14T12:53:38.392Z,21.512451
2018-12-14T12:53:46.209Z,21.532593
2018-12-14T12:53:54.095Z,21.552734
2018-12-14T12:54:02.741Z,21.582947
2018-12-14T12:54:10.622Z,21.593018
2018-12-14T12:54:18.447Z,21.613159
2018-12-14T12:54:26.351Z,21.643372
2018-12-14T12:54:34.201Z,21.643372
2018-12-14T12:54:42.090Z,21.663513
2018-12-14T12:54:53.632Z,21.693726
2018-12-14T12:55:01.664Z,21.713867
2018-12-14T12:55:09.847Z,21.713867
2018-12-14T12:55:17.708Z,21.74408
2018-12-14T12:55:25.614Z,21.764221
2018-12-14T12:55:33.468Z,21.774292
2018-12-14T12:55:41.371Z,21.794434
2018-12-14T12:55:49.456Z,21.804504
2018-12-14T12:55:57.322Z,21.804504
2018-12-14T12:56:05.149Z,21.814575
2018-12-14T12:56:13.018Z,21.844788
2018-12-14T12:56:20.809Z,21.864929
2018-12-14T12:56:28.619Z,21.875
2018-12-14T12:56:36.860Z,21.895142
2018-12-14T12:56:44.753Z,21.905212
2018-12-14T12:56:52.605Z,21.925354
2018-12-14T12:57:00.479Z,21.945496
2018-12-14T12:57:08.322Z,21.955566
2018-12-14T12:57:16.262Z,21.965637
2018-12-14T12:57:24.942Z,21.99585
2018-12-14T12:57:32.630Z,21.99585
2018-12-14T12:57:41.477Z,22.015991
2018-12-14T12:57:49.427Z,22.026062
2018-12-14T12:57:57.205Z,22.026062
2018-12-14T12:58:05.059Z,22.046204
2018-12-14T12:58:13.072Z,22.056274
2018-12-14T12:58:21.020Z,22.086487
2018-12-14T12:58:29.866Z,22.086487
2018-12-14T12:58:37.758Z,22.106628
2018-12-14T12:58:45.905Z,22.116699
2018-12-14T12:58:54.494Z,22.136841
2018-12-14T12:59:01.637Z,22.136841
2018-12-14T12:59:09.461Z,22.146912
2018-12-14T12:59:17.375Z,22.167053
2018-12-14T12:59:25.188Z,22.177124
2018-12-14T12:59:33.973Z,22.177124
2018-12-14T12:59:42.033Z,22.207336
2018-12-14T12:59:49.897Z,22.217407
2018-12-14T12:59:57.883Z,22.217407
2018-12-14T13:00:08.230Z,22.24762
2018-12-14T13:00:16.120Z,22.24762
2018-12-14T13:00:24.029Z,22.267761
2018-12-14T13:00:31.856Z,22.297974
2018-12-14T13:00:40.051Z,22.277832
2018-12-14T13:00:47.873Z,22.297974
2018-12-14T13:00:55.720Z,22.318115
2018-12-14T13:01:03.576Z,22.318115
2018-12-14T13:01:11.483Z,22.328186
2018-12-14T13:01:19.415Z,22.328186
2018-12-14T13:01:27.349Z,22.358398
2018-12-14T13:01:36.844Z,22.358398
2018-12-14T13:01:44.816Z,22.368469
2018-12-14T13:01:52.652Z,22.398682
2018-12-14T13:02:00.454Z,22.398682
2018-12-14T13:02:08.319Z,22.418823
2018-12-14T13:02:16.162Z,22.418823
2018-12-14T13:02:23.977Z,22.428894
2018-12-14T13:02:31.814Z,22.449036
2018-12-14T13:02:39.705Z,22.449036
2018-12-14T13:02:47.552Z,22.479248
2018-12-14T13:02:55.400Z,22.459106
2018-12-14T13:03:03.276Z,22.479248
2018-12-14T13:03:11.286Z,22.49939
2018-12-14T13:03:19.139Z,22.50946
2018-12-14T13:03:27.022Z,22.50946
2018-12-14T13:03:34.868Z,22.50946
2018-12-14T13:03:42.807Z,22.519531
2018-12-14T13:03:50.674Z,22.539673
2018-12-14T13:03:58.592Z,22.539673
2018-12-14T13:04:08.158Z,22.569885
2018-12-14T13:04:17.041Z,22.579956
2018-12-14T13:04:24.883Z,22.579956
2018-12-14T13:04:32.730Z,22.579956
2018-12-14T13:04:40.632Z,22.600098
2018-12-14T13:04:48.458Z,22.600098
2018-12-14T13:04:57.320Z,22.610168
2018-12-14T13:05:05.239Z,22.610168
2018-12-14T13:05:13.060Z,22.620239
2018-12-14T13:05:20.897Z,22.640381
2018-12-14T13:05:34.645Z,22.650452
2018-12-14T13:05:39.807Z,22.650452
2018-12-14T13:05:49.306Z,22.650452
2018-12-14T13:05:58.130Z,22.670593
2018-12-14T13:06:06.011Z,22.670593
2018-12-14T13:06:13.825Z,22.700806
2018-12-14T13:06:21.684Z,22.700806
2018-12-14T13:06:29.591Z,22.690735
2018-12-14T13:06:38.599Z,22.700806
2018-12-14T13:06:46.474Z,22.700806
2018-12-14T13:06:56.287Z,22.720947
2018-12-14T13:07:04.139Z,22.731018
2018-12-14T13:07:12.057Z,22.731018
2018-12-14T13:07:19.846Z,22.731018
2018-12-14T13:07:27.730Z,22.731018